UPSVAC Airport Information Service

Seoul Incheon International Airport

ICAO: RKSI Country: South Korea
Latitude: 37.4691 Longitude: 126.451
Latest Arrival : UPS3741 (YSSY-RKSI) Latest Departure : UPS1243 (RKSI-PANC)


WX CaptureLIVE
Data provided by noaa.gov | Fetched at 14:18:58

METAR : RKSI 141400Z 22003KT 170V260 CAVOK 08/05 Q1020 NOSIG

TAF : RKSI 141100Z 1412/1518 22008KT 6000 NSC TN06/1421Z TX15/1505Z BECMG 1417/1418 16007KT 4000 BR BECMG 1500/1501 19006KT CAVOK BECMG 1504/1505 25010KT BECMG 1511/1512 15008KT 4000 BR NSC BECMG 1516/1517 18013KT 6000 NSW SCT030


Runway Data for RKSI
Data provided by openaviationdata.com

Runway ID Mag Var Hdg Length Elevation Surface ILS Freq ILS Id ILS Slope
15L -8 152° 12308 ft 23 ft Asphalt 111.9 ISLL 3
15R -8 152° 12308 ft 23 ft Asphalt 109.1 ISRR 3
33L -8 332° 12308 ft 23 ft Asphalt 109.3 INLL 3
33R -8 332° 12308 ft 23 ft Asphalt 108.9 INRR 3

Seoul Incheon International Airport, South Korea
Use only for reference purposes



Not for navigational purposes.